createdAt,value
2018-11-03T00:00:18.539Z,0
2018-11-03T00:01:19.599Z,0
2018-11-03T00:02:19.410Z,0
2018-11-03T00:03:19.934Z,0
2018-11-03T00:04:21.742Z,0
2018-11-03T00:05:22.554Z,0
2018-11-03T00:06:23.639Z,0
2018-11-03T00:07:24.728Z,0
2018-11-03T00:08:25.457Z,0
2018-11-03T00:09:26.480Z,0
2018-11-03T00:10:26.998Z,0
2018-11-03T00:11:27.793Z,0
2018-11-03T00:12:28.025Z,0
2018-11-03T00:13:30.704Z,0
2018-11-03T00:14:29.937Z,0
2018-11-03T00:15:31.455Z,0
2018-11-03T00:16:32.539Z,0
2018-11-03T00:17:34.201Z,0
2018-11-03T00:18:34.628Z,0
2018-11-03T00:19:35.706Z,0
2018-11-03T00:20:35.938Z,0
2018-11-03T00:21:37.057Z,0
2018-11-03T00:22:37.491Z,0
2018-11-03T00:23:38.286Z,0
2018-11-03T00:24:39.383Z,0
2018-11-03T00:25:40.480Z,0
2018-11-03T00:26:41.273Z,0
2018-11-03T00:27:43.496Z,0
2018-11-03T00:28:43.056Z,0
2018-11-03T00:29:43.847Z,0
2018-11-03T00:30:44.642Z,0
2018-11-03T00:31:46.155Z,0
2018-11-03T00:32:46.667Z,0
2018-11-03T00:33:47.384Z,0
2018-11-03T00:34:47.888Z,0
2018-11-03T00:35:48.401Z,0
2018-11-03T00:36:49.188Z,0
2018-11-03T00:37:50.555Z,0
2018-11-03T00:38:50.766Z,0
2018-11-03T00:39:51.559Z,0
2018-11-03T00:40:52.377Z,0
2018-11-03T00:41:53.479Z,0
2018-11-03T00:42:55.955Z,0
2018-11-03T00:43:55.651Z,0
2018-11-03T00:44:55.889Z,0
2018-11-03T00:45:57.121Z,0
2018-11-03T00:46:58.493Z,0
2018-11-03T00:47:59.006Z,0
2018-11-03T00:48:59.286Z,0
2018-11-03T00:50:00.797Z,0
2018-11-03T00:51:01.308Z,0
2018-11-03T00:52:02.820Z,0
2018-11-03T00:53:03.361Z,0
2018-11-03T00:54:05.325Z,0
2018-11-03T00:55:05.837Z,0
2018-11-03T00:56:06.989Z,0
2018-11-03T00:57:07.507Z,0
2018-11-03T00:58:08.297Z,0
2018-11-03T00:59:09.164Z,0
2018-11-03T01:00:09.685Z,0
2018-11-03T01:01:10.200Z,0
2018-11-03T01:02:10.997Z,0
2018-11-03T01:03:11.787Z,0
2018-11-03T01:04:12.880Z,0
2018-11-03T01:05:14.322Z,0
2018-11-03T01:06:13.807Z,0
2018-11-03T01:07:14.338Z,0
2018-11-03T01:08:15.855Z,0
2018-11-03T01:09:17.025Z,0
2018-11-03T01:10:17.536Z,0
2018-11-03T01:11:18.620Z,0
2018-11-03T01:12:19.974Z,0
2018-11-03T01:13:21.605Z,0
2018-11-03T01:14:22.117Z,0
2018-11-03T01:15:22.908Z,0
2018-11-03T01:16:24.297Z,0
2018-11-03T01:17:25.495Z,0
2018-11-03T01:18:25.296Z,0
2018-11-03T01:19:26.143Z,0
2018-11-03T01:20:25.941Z,0
2018-11-03T01:21:27.877Z,0
2018-11-03T01:22:28.013Z,0
2018-11-03T01:23:29.016Z,0
2018-11-03T01:24:30.067Z,0
2018-11-03T01:25:30.420Z,0
2018-11-03T01:26:30.931Z,0
2018-11-03T01:27:31.441Z,0
2018-11-03T01:28:32.805Z,0
2018-11-03T01:29:33.373Z,0
2018-11-03T01:30:34.171Z,0
2018-11-03T01:31:35.097Z,0
2018-11-03T01:32:37.232Z,0
2018-11-03T01:33:37.270Z,0
2018-11-03T01:34:37.108Z,0
2018-11-03T01:35:37.893Z,0
2018-11-03T01:36:39.259Z,0
2018-11-03T01:37:39.068Z,0
2018-11-03T01:38:40.981Z,0
2018-11-03T01:39:41.819Z,0
2018-11-03T01:40:42.056Z,0
2018-11-03T01:41:44.756Z,0
2018-11-03T01:42:45.118Z,0
2018-11-03T01:43:46.194Z,0
2018-11-03T01:44:47.278Z,0
2018-11-03T01:45:48.640Z,0
2018-11-03T01:46:48.440Z,0
2018-11-03T01:47:49.627Z,0
2018-11-03T01:48:50.992Z,0
2018-11-03T01:49:52.406Z,0
2018-11-03T01:50:52.187Z,0
2018-11-03T01:51:52.703Z,0
2018-11-03T01:52:54.496Z,0
2018-11-03T01:53:56.092Z,0
2018-11-03T01:54:55.606Z,0
2018-11-03T01:55:56.411Z,0
2018-11-03T01:56:57.506Z,0
2018-11-03T01:57:58.588Z,0
2018-11-03T01:58:59.241Z,0
2018-11-03T01:59:59.675Z,0
2018-11-03T02:01:00.761Z,0
2018-11-03T02:02:01.565Z,0
2018-11-03T02:03:02.807Z,0
2018-11-03T02:04:03.893Z,0
2018-11-03T02:05:04.542Z,0
2018-11-03T02:06:05.308Z,0
2018-11-03T02:07:05.119Z,0
2018-11-03T02:08:06.915Z,0
2018-11-03T02:09:08.305Z,0
2018-11-03T02:10:08.875Z,0
2018-11-03T02:11:10.237Z,0
2018-11-03T02:12:11.034Z,0
2018-11-03T02:13:11.550Z,0
2018-11-03T02:14:12.624Z,0
2018-11-03T02:15:13.425Z,0
2018-11-03T02:16:14.514Z,0
2018-11-03T02:17:15.305Z,0
2018-11-03T02:18:16.922Z,0
2018-11-03T02:19:17.714Z,0
2018-11-03T02:20:18.148Z,0
2018-11-03T02:21:18.523Z,0
2018-11-03T02:22:19.880Z,0
2018-11-03T02:23:20.522Z,0
2018-11-03T02:24:21.324Z,0
2018-11-03T02:25:22.486Z,0
2018-11-03T02:26:23.001Z,0
2018-11-03T02:27:24.349Z,0
2018-11-03T02:28:24.700Z,0
2018-11-03T02:29:25.815Z,0
2018-11-03T02:30:27.461Z,0
2018-11-03T02:31:28.491Z,0
2018-11-03T02:32:30.124Z,0
2018-11-03T02:33:31.048Z,0
2018-11-03T02:34:31.118Z,0
2018-11-03T02:35:31.933Z,0
2018-11-03T02:36:33.865Z,0
2018-11-03T02:37:34.251Z,0
2018-11-03T02:38:35.341Z,0
2018-11-03T02:39:35.698Z,0
2018-11-03T02:40:36.553Z,0
2018-11-03T02:41:38.327Z,0
2018-11-03T02:42:39.576Z,0
2018-11-03T02:43:39.934Z,0
2018-11-03T02:44:40.017Z,0
2018-11-03T02:45:41.090Z,0
2018-11-03T02:46:41.904Z,0
2018-11-03T02:47:42.995Z,0
2018-11-03T02:48:44.634Z,0
2018-11-03T02:49:44.893Z,0
2018-11-03T02:50:45.804Z,0
2018-11-03T02:51:47.725Z,0
2018-11-03T02:52:59.774Z,0
2018-11-03T02:54:00.622Z,0
2018-11-03T02:55:01.416Z,0
2018-11-03T02:56:02.222Z,0
2018-11-03T02:57:03.411Z,0
2018-11-03T02:58:04.331Z,0
2018-11-03T02:59:04.408Z,0
2018-11-03T03:00:05.757Z,0
2018-11-03T03:01:06.149Z,0
2018-11-03T03:02:05.673Z,0
2018-11-03T03:03:07.474Z,0
2018-11-03T03:04:08.894Z,0
2018-11-03T03:05:09.696Z,0
2018-11-03T03:06:10.802Z,0
2018-11-03T03:07:12.157Z,0
2018-11-03T03:08:13.253Z,0
2018-11-03T03:09:12.681Z,0
2018-11-03T03:10:12.780Z,0
2018-11-03T03:11:13.853Z,0
2018-11-03T03:12:14.931Z,0
2018-11-03T03:13:15.290Z,0
2018-11-03T03:14:16.141Z,0
2018-11-03T03:15:17.216Z,0
2018-11-03T03:16:18.473Z,0
2018-11-03T03:17:18.271Z,0
2018-11-03T03:18:19.645Z,0
2018-11-03T03:19:20.230Z,0
2018-11-03T03:20:20.062Z,0
2018-11-03T03:21:21.137Z,0
2018-11-03T03:22:21.531Z,0
2018-11-03T03:23:22.059Z,0
2018-11-03T03:24:23.877Z,0
2018-11-03T03:25:24.829Z,0
2018-11-03T03:26:25.464Z,0
2018-11-03T03:27:26.588Z,0
2018-11-03T03:28:26.824Z,0
2018-11-03T03:29:29.412Z,0
2018-11-03T03:30:30.067Z,0
2018-11-03T03:31:30.771Z,0
2018-11-03T03:32:31.084Z,0
2018-11-03T03:33:31.724Z,0
2018-11-03T03:34:32.154Z,0
2018-11-03T03:35:33.794Z,0
2018-11-03T03:36:35.166Z,0
2018-11-03T03:37:35.246Z,0
2018-11-03T03:38:35.667Z,0
2018-11-03T03:39:37.033Z,0
2018-11-03T03:40:37.420Z,0
2018-11-03T03:41:39.057Z,0
2018-11-03T03:42:40.514Z,0
2018-11-03T03:43:41.310Z,0
2018-11-03T03:44:41.614Z,0
2018-11-03T03:45:42.976Z,0
2018-11-03T03:46:44.079Z,0
2018-11-03T03:47:45.200Z,0
2018-11-03T03:48:46.588Z,0
2018-11-03T03:49:47.264Z,0
2018-11-03T03:50:48.345Z,0
2018-11-03T03:51:49.430Z,0
2018-11-03T03:52:49.499Z,0
2018-11-03T03:53:51.224Z,0
2018-11-03T03:54:51.796Z,0
2018-11-03T03:55:52.876Z,0
2018-11-03T03:56:54.519Z,0
2018-11-03T03:57:55.161Z,0
2018-11-03T03:58:55.604Z,0
2018-11-03T03:59:56.396Z,0
2018-11-03T04:00:58.038Z,0
2018-11-03T04:01:58.575Z,0
2018-11-03T04:02:59.968Z,0
2018-11-03T04:04:00.055Z,0
2018-11-03T04:05:01.457Z,0
2018-11-03T04:06:03.107Z,0
2018-11-03T04:07:04.647Z,0
2018-11-03T04:08:04.718Z,0
2018-11-03T04:09:05.358Z,0
2018-11-03T04:10:05.731Z,0
2018-11-03T04:11:06.861Z,0
2018-11-03T04:12:07.713Z,0
2018-11-03T04:13:08.529Z,0
2018-11-03T04:14:09.614Z,0
2018-11-03T04:15:10.204Z,0
2018-11-03T04:16:11.319Z,0
2018-11-03T04:17:13.353Z,0
2018-11-03T04:18:13.428Z,0
2018-11-03T04:19:13.874Z,0
2018-11-03T04:20:14.334Z,0
2018-11-03T04:21:15.426Z,0
2018-11-03T04:22:16.084Z,0
2018-11-03T04:23:16.720Z,0
2018-11-03T04:24:17.705Z,0
2018-11-03T04:25:18.016Z,0
2018-11-03T04:26:19.127Z,0
2018-11-03T04:27:19.108Z,0
2018-11-03T04:28:20.246Z,0
2018-11-03T04:29:20.365Z,0
2018-11-03T04:30:22.087Z,0
2018-11-03T04:31:22.493Z,0
2018-11-03T04:32:23.132Z,0
2018-11-03T04:33:23.806Z,0
2018-11-03T04:34:24.472Z,0
2018-11-03T04:35:24.925Z,0
2018-11-03T04:36:26.296Z,0
2018-11-03T04:37:26.816Z,0
2018-11-03T04:38:27.887Z,0
2018-11-03T04:39:28.932Z,0
2018-11-03T04:40:30.375Z,0
2018-11-03T04:41:31.177Z,0
2018-11-03T04:42:32.424Z,0
2018-11-03T04:43:34.083Z,0
2018-11-03T04:44:33.603Z,0
2018-11-03T04:45:35.044Z,0
2018-11-03T04:46:35.903Z,0
2018-11-03T04:47:36.419Z,0
2018-11-03T04:48:36.937Z,0
2018-11-03T04:49:38.048Z,0
2018-11-03T04:50:39.590Z,0
2018-11-03T04:51:41.816Z,0
2018-11-03T04:52:41.735Z,0
2018-11-03T04:53:42.529Z,0
2018-11-03T04:54:43.321Z,0
2018-11-03T04:55:43.252Z,0
2018-11-03T04:56:44.768Z,0
2018-11-03T04:57:45.285Z,0
2018-11-03T04:58:46.707Z,0
2018-11-03T04:59:47.530Z,0
2018-11-03T05:00:48.880Z,0
2018-11-03T05:01:48.401Z,0
2018-11-03T05:02:49.635Z,0
2018-11-03T05:03:50.936Z,0
2018-11-03T05:04:51.756Z,0
2018-11-03T05:05:52.316Z,0
2018-11-03T05:06:52.836Z,0
2018-11-03T05:07:53.642Z,0
2018-11-03T05:08:54.746Z,0
2018-11-03T05:09:56.824Z,0
2018-11-03T05:10:56.498Z,0
2018-11-03T05:11:56.731Z,0
2018-11-03T05:12:57.526Z,0
2018-11-03T05:13:58.974Z,0
2018-11-03T05:14:59.618Z,0
2018-11-03T05:15:59.807Z,0
2018-11-03T05:17:00.604Z,0
2018-11-03T05:18:01.399Z,0
2018-11-03T05:19:02.199Z,0
2018-11-03T05:20:03.286Z,0
2018-11-03T05:21:05.311Z,0
2018-11-03T05:22:04.900Z,0
2018-11-03T05:23:06.697Z,0
2018-11-03T05:24:07.787Z,0
2018-11-03T05:25:08.313Z,0
2018-11-03T05:26:09.745Z,0
2018-11-03T05:27:10.018Z,0
2018-11-03T05:28:11.665Z,0
2018-11-03T05:29:12.461Z,0
2018-11-03T05:30:12.585Z,0
2018-11-03T05:31:14.395Z,0
2018-11-03T05:32:15.225Z,0
2018-11-03T05:33:17.195Z,0
2018-11-03T05:34:16.993Z,0
2018-11-03T05:35:18.796Z,0
2018-11-03T05:36:20.566Z,0
2018-11-03T05:37:21.378Z,0
2018-11-03T05:38:22.274Z,0
2018-11-03T05:39:22.674Z,0
2018-11-03T05:40:24.657Z,0
2018-11-03T05:41:24.614Z,0
2018-11-03T05:42:24.984Z,4
2018-11-03T05:43:25.063Z,4
2018-11-03T05:44:26.755Z,4
2018-11-03T05:45:27.557Z,0
2018-11-03T05:46:30.142Z,0
2018-11-03T05:47:29.781Z,0
2018-11-03T05:48:30.573Z,4
2018-11-03T05:49:31.939Z,4
2018-11-03T05:50:32.875Z,4
2018-11-03T05:51:33.398Z,4
2018-11-03T05:52:33.918Z,4
2018-11-03T05:53:34.992Z,4
2018-11-03T05:54:35.483Z,4
2018-11-03T05:55:36.835Z,4
2018-11-03T05:56:36.707Z,8
2018-11-03T05:57:37.349Z,8
2018-11-03T05:58:38.898Z,12
2018-11-03T05:59:39.893Z,12
2018-11-03T06:00:41.325Z,12
2018-11-03T06:01:41.968Z,16
2018-11-03T06:02:42.044Z,12
2018-11-03T06:03:42.468Z,16
2018-11-03T06:04:43.548Z,16
2018-11-03T06:05:44.627Z,16
2018-11-03T06:06:45.954Z,16
2018-11-03T06:07:46.033Z,16
2018-11-03T06:08:47.699Z,20
2018-11-03T06:09:48.358Z,20
2018-11-03T06:10:49.728Z,20
2018-11-03T06:11:50.809Z,24
2018-11-03T06:12:51.918Z,24
2018-11-03T06:13:53.035Z,28
2018-11-03T06:14:54.116Z,28
2018-11-03T06:15:55.055Z,28
2018-11-03T06:16:55.179Z,32
2018-11-03T06:17:56.624Z,32
2018-11-03T06:18:56.430Z,32
2018-11-03T06:19:57.804Z,40
2018-11-03T06:20:59.229Z,44
2018-11-03T06:21:59.622Z,56
2018-11-03T06:23:01.892Z,60
2018-11-03T06:24:01.255Z,72
2018-11-03T06:25:02.352Z,76
2018-11-03T06:26:03.437Z,80
2018-11-03T06:27:03.840Z,76
2018-11-03T06:28:05.462Z,72
2018-11-03T06:29:05.533Z,68
2018-11-03T06:30:06.049Z,64
2018-11-03T06:31:06.576Z,64
2018-11-03T06:32:07.662Z,64
2018-11-03T06:33:08.181Z,64
2018-11-03T06:34:08.974Z,64
2018-11-03T06:35:11.505Z,64
2018-11-03T06:36:10.532Z,64
2018-11-03T06:37:12.023Z,68
2018-11-03T06:38:11.849Z,76
2018-11-03T06:39:12.349Z,76
2018-11-03T06:40:13.431Z,76
2018-11-03T06:41:14.260Z,76
2018-11-03T06:42:15.063Z,80
2018-11-03T06:43:16.438Z,84
2018-11-03T06:44:16.987Z,92
2018-11-03T06:45:17.507Z,100
2018-11-03T06:46:18.376Z,108
2018-11-03T06:47:20.781Z,116
2018-11-03T06:48:20.169Z,120
2018-11-03T06:49:21.916Z,120
2018-11-03T06:50:21.433Z,124
2018-11-03T06:51:22.231Z,124
2018-11-03T06:52:24.941Z,120
2018-11-03T06:53:23.734Z,116
2018-11-03T06:54:24.838Z,116
2018-11-03T06:55:25.352Z,112
2018-11-03T06:56:26.999Z,116
2018-11-03T06:57:27.171Z,132
2018-11-03T06:58:28.263Z,132
2018-11-03T06:59:29.338Z,140
2018-11-03T07:00:30.557Z,144
2018-11-03T07:01:30.799Z,148
2018-11-03T07:02:31.887Z,156
2018-11-03T07:03:33.248Z,168
2018-11-03T07:04:33.387Z,180
2018-11-03T07:05:33.930Z,188
2018-11-03T07:06:35.070Z,196
2018-11-03T07:07:35.924Z,204
2018-11-03T07:08:37.573Z,216
2018-11-03T07:09:37.716Z,224
2018-11-03T07:10:38.525Z,236
2018-11-03T07:11:39.470Z,240
2018-11-03T07:12:43.246Z,248
2018-11-03T07:12:53.451Z,252
2018-11-03T07:13:52.931Z,260
2018-11-03T07:14:55.486Z,272
2018-11-03T07:15:54.564Z,296
2018-11-03T07:16:55.079Z,316
2018-11-03T07:17:55.901Z,332
2018-11-03T07:18:57.835Z,348
2018-11-03T07:19:58.354Z,352
2018-11-03T07:20:59.715Z,360
2018-11-03T07:22:01.389Z,372
2018-11-03T07:23:01.195Z,396
2018-11-03T07:24:03.179Z,432
2018-11-03T07:25:02.980Z,468
2018-11-03T07:26:04.969Z,496
2018-11-03T07:27:05.068Z,504
2018-11-03T07:28:05.867Z,500
2018-11-03T07:29:06.664Z,488
2018-11-03T07:30:07.191Z,472
2018-11-03T07:31:08.271Z,456
2018-11-03T07:32:08.802Z,440
2018-11-03T07:33:10.185Z,424
2018-11-03T07:34:10.319Z,432
2018-11-03T07:35:11.110Z,452
2018-11-03T07:36:11.915Z,476
2018-11-03T07:37:13.715Z,500
2018-11-03T07:38:14.797Z,520
2018-11-03T07:39:14.870Z,532
2018-11-03T07:40:16.230Z,544
2018-11-03T07:41:17.128Z,548
2018-11-03T07:42:17.966Z,544
2018-11-03T07:43:18.496Z,540
2018-11-03T07:44:19.088Z,532
2018-11-03T07:45:20.884Z,528
2018-11-03T07:46:21.684Z,508
2018-11-03T07:47:22.917Z,480
2018-11-03T07:48:26.201Z,448
2018-11-03T07:49:26.943Z,436
2018-11-03T07:50:25.818Z,440
2018-11-03T07:51:26.968Z,472
2018-11-03T07:52:28.609Z,512
2018-11-03T07:53:30.292Z,552
2018-11-03T07:54:31.218Z,580
2018-11-03T07:55:31.242Z,584
2018-11-03T07:56:32.081Z,580
2018-11-03T07:57:32.889Z,580
2018-11-03T07:58:33.983Z,588
2018-11-03T07:59:35.605Z,612
2018-11-03T08:00:36.323Z,636
2018-11-03T08:01:35.964Z,672
2018-11-03T08:02:36.488Z,712
2018-11-03T08:03:37.844Z,760
2018-11-03T08:04:38.439Z,800
2018-11-03T08:05:39.235Z,828
2018-11-03T08:06:40.756Z,852
2018-11-03T08:07:41.844Z,868
2018-11-03T08:08:42.366Z,872
2018-11-03T08:09:43.471Z,872
2018-11-03T08:10:45.409Z,880
2018-11-03T08:11:45.683Z,884
2018-11-03T08:12:46.473Z,888
2018-11-03T08:13:47.273Z,864
2018-11-03T08:14:48.162Z,824
2018-11-03T08:15:49.781Z,804
2018-11-03T08:16:50.457Z,828
2018-11-03T08:17:50.257Z,860
2018-11-03T08:18:51.770Z,856
2018-11-03T08:19:52.614Z,828
2018-11-03T08:20:52.857Z,848
2018-11-03T08:21:54.206Z,940
2018-11-03T08:22:55.463Z,1084
2018-11-03T08:23:56.162Z,1220
2018-11-03T08:24:56.756Z,1284
2018-11-03T08:25:56.807Z,1316
2018-11-03T08:26:57.619Z,1328
2018-11-03T08:27:59.293Z,1328
2018-11-03T08:29:00.393Z,1340
2018-11-03T08:30:02.097Z,1372
2018-11-03T08:31:02.181Z,1436
2018-11-03T08:32:04.057Z,1528
2018-11-03T08:33:04.889Z,1560
2018-11-03T08:34:05.619Z,1544
2018-11-03T08:35:06.184Z,1540
2018-11-03T08:36:07.560Z,1564
2018-11-03T08:37:08.078Z,1612
2018-11-03T08:38:09.602Z,1652
2018-11-03T08:39:10.399Z,1612
2018-11-03T08:40:11.484Z,1492
2018-11-03T08:41:11.294Z,1396
2018-11-03T08:42:11.824Z,1356
2018-11-03T08:43:13.353Z,1312
2018-11-03T08:44:14.180Z,1272
2018-11-03T08:45:14.748Z,1220
2018-11-03T08:46:15.345Z,1148
2018-11-03T08:47:16.730Z,1064
2018-11-03T08:48:19.812Z,996
2018-11-03T08:49:18.792Z,952
2018-11-03T08:50:19.157Z,900
2018-11-03T08:51:19.394Z,848
2018-11-03T08:52:21.207Z,856
2018-11-03T08:53:22.300Z,884
2018-11-03T08:54:23.665Z,860
2018-11-03T08:55:23.525Z,840
2018-11-03T08:56:24.348Z,860
2018-11-03T08:57:25.211Z,924
2018-11-03T08:58:25.879Z,988
2018-11-03T08:59:27.211Z,1036
2018-11-03T09:00:27.826Z,1036
2018-11-03T09:01:28.628Z,1016
2018-11-03T09:02:28.427Z,1028
2018-11-03T09:03:30.225Z,1080
2018-11-03T09:04:30.760Z,1144
2018-11-03T09:05:32.317Z,1244
2018-11-03T09:06:33.410Z,1308
2018-11-03T09:07:34.060Z,1264
2018-11-03T09:08:35.014Z,1192
2018-11-03T09:09:35.142Z,1200
2018-11-03T09:10:37.171Z,1236
2018-11-03T09:11:36.406Z,1188
2018-11-03T09:12:36.928Z,1176
2018-11-03T09:13:38.172Z,1188
2018-11-03T09:14:41.423Z,1148
2018-11-03T09:15:40.224Z,1108
2018-11-03T09:16:41.751Z,1076
2018-11-03T09:17:42.834Z,1068
2018-11-03T09:18:43.519Z,1148
2018-11-03T09:19:45.054Z,1220
2018-11-03T09:20:45.450Z,1232
2018-11-03T09:21:46.750Z,1220
2018-11-03T09:22:47.292Z,1176
2018-11-03T09:23:46.969Z,1156
2018-11-03T09:24:48.050Z,1164
2018-11-03T09:25:48.951Z,1220
2018-11-03T09:26:49.484Z,1344
2018-11-03T09:27:50.287Z,1540
2018-11-03T09:28:51.373Z,1752
2018-11-03T09:29:52.465Z,1956
2018-11-03T09:30:53.559Z,2084
2018-11-03T09:31:56.361Z,2068
2018-11-03T09:32:55.158Z,2056
2018-11-03T09:33:57.018Z,2080
2018-11-03T09:34:56.822Z,2096
2018-11-03T09:35:57.997Z,2204
2018-11-03T09:36:59.922Z,2416
2018-11-03T09:38:00.007Z,2544
2018-11-03T09:39:02.063Z,2624
2018-11-03T09:40:02.149Z,2724
2018-11-03T09:41:03.539Z,2880
2018-11-03T09:42:03.915Z,2948
2018-11-03T09:43:04.685Z,2948
2018-11-03T09:44:05.280Z,2844
2018-11-03T09:45:06.908Z,2788
2018-11-03T09:46:06.756Z,2824
2018-11-03T09:47:08.840Z,2776
2018-11-03T09:48:09.524Z,2528
2018-11-03T09:49:10.048Z,2460
2018-11-03T09:50:11.160Z,2452
2018-11-03T09:51:12.918Z,2340
2018-11-03T09:52:12.302Z,2212
2018-11-03T09:53:13.826Z,1984
2018-11-03T09:54:15.033Z,1844
2018-11-03T09:55:15.556Z,1936
2018-11-03T09:56:16.422Z,2180
2018-11-03T09:57:17.903Z,2300
2018-11-03T09:58:19.521Z,2332
2018-11-03T09:59:19.042Z,2300
2018-11-03T10:00:19.283Z,2204
2018-11-03T10:01:20.096Z,2088
2018-11-03T10:02:21.459Z,2048
2018-11-03T10:03:22.324Z,2112
2018-11-03T10:04:22.849Z,2092
2018-11-03T10:05:23.956Z,2084
2018-11-03T10:06:25.414Z,2176
2018-11-03T10:07:25.303Z,2152
2018-11-03T10:08:26.390Z,2056
2018-11-03T10:09:26.634Z,2012
2018-11-03T10:10:29.695Z,1920
2018-11-03T10:11:28.782Z,1824
2018-11-03T10:12:30.212Z,1788
2018-11-03T10:13:31.854Z,1780
2018-11-03T10:14:31.688Z,1868
2018-11-03T10:15:32.215Z,2040
2018-11-03T10:16:33.368Z,2240
2018-11-03T10:17:34.606Z,2284
2018-11-03T10:18:34.420Z,2136
2018-11-03T10:19:35.644Z,2012
2018-11-03T10:20:36.006Z,1976
2018-11-03T10:21:36.096Z,1868
2018-11-03T10:22:36.245Z,1684
2018-11-03T10:23:37.088Z,1616
2018-11-03T10:24:37.897Z,1620
2018-11-03T10:25:38.699Z,1536
2018-11-03T10:26:39.571Z,1508
2018-11-03T10:27:41.382Z,1660
2018-11-03T10:28:41.186Z,1796
2018-11-03T10:29:42.330Z,1860
2018-11-03T10:30:43.152Z,1996
2018-11-03T10:31:43.396Z,2200
2018-11-03T10:32:45.562Z,2556
2018-11-03T10:33:48.360Z,3236
2018-11-03T10:34:47.103Z,3608
2018-11-03T10:35:48.299Z,3752
2018-11-03T10:36:49.422Z,4088
2018-11-03T10:37:50.096Z,4256
2018-11-03T10:38:50.220Z,4472
2018-11-03T10:39:51.296Z,4672
2018-11-03T10:40:52.815Z,4772
2018-11-03T10:41:53.215Z,4820
2018-11-03T10:42:53.747Z,5912
2018-11-03T10:43:54.865Z,7072
2018-11-03T10:44:57.172Z,6840
2018-11-03T10:45:57.005Z,12904
2018-11-03T10:46:57.836Z,8188
2018-11-03T10:47:58.358Z,8304
2018-11-03T10:48:59.746Z,10240
2018-11-03T10:49:59.554Z,11544
2018-11-03T10:51:00.413Z,10732
2018-11-03T10:52:00.784Z,12352
2018-11-03T10:53:01.876Z,8044
2018-11-03T10:54:02.951Z,7480
2018-11-03T10:55:03.760Z,7040
2018-11-03T10:56:04.573Z,6504
2018-11-03T10:57:06.800Z,6600
2018-11-03T10:58:06.380Z,6140
2018-11-03T10:59:07.539Z,5556
2018-11-03T11:00:08.278Z,5440
2018-11-03T11:01:09.077Z,5136
2018-11-03T11:02:09.177Z,5008
2018-11-03T11:03:09.968Z,4876
2018-11-03T11:04:11.632Z,5208
2018-11-03T11:05:12.157Z,5440
2018-11-03T11:06:13.240Z,5224
2018-11-03T11:07:14.660Z,5644
2018-11-03T11:08:14.469Z,6128
2018-11-03T11:09:16.681Z,6364
2018-11-03T11:10:17.221Z,5848
2018-11-03T11:11:17.743Z,5532
2018-11-03T11:12:19.272Z,5984
2018-11-03T11:13:20.354Z,7712
2018-11-03T11:14:22.446Z,9136
2018-11-03T11:15:21.968Z,8720
2018-11-03T11:16:24.685Z,8016
2018-11-03T11:17:24.139Z,10304
2018-11-03T11:18:24.384Z,17344
2018-11-03T11:19:26.246Z,12876
2018-11-03T11:20:27.056Z,11016
2018-11-03T11:21:27.585Z,8816
2018-11-03T11:22:28.590Z,11284
2018-11-03T11:23:30.369Z,12768
2018-11-03T11:24:31.167Z,12312
2018-11-03T11:25:33.140Z,8688
2018-11-03T11:26:32.508Z,8240
2018-11-03T11:27:33.726Z,10832
2018-11-03T11:28:34.356Z,8148
2018-11-03T11:29:35.072Z,8820
2018-11-03T11:30:35.711Z,9492
2018-11-03T11:31:38.516Z,12524
2018-11-03T11:32:39.124Z,12648
2018-11-03T11:33:38.104Z,15712
2018-11-03T11:34:40.370Z,16032
2018-11-03T11:35:40.454Z,16288
2018-11-03T11:36:40.552Z,17248
2018-11-03T11:37:42.550Z,16128
2018-11-03T11:38:43.676Z,16448
2018-11-03T11:39:44.699Z,16128
2018-11-03T11:40:43.950Z,17920
2018-11-03T11:41:45.195Z,16352
2018-11-03T11:42:48.044Z,14688
2018-11-03T11:43:48.222Z,14464
2018-11-03T11:44:49.968Z,16480
2018-11-03T11:45:50.777Z,16032
2018-11-03T11:46:52.290Z,15488
2018-11-03T11:47:52.915Z,15232
2018-11-03T11:48:54.529Z,15840
2018-11-03T11:49:54.639Z,15904
2018-11-03T11:50:56.311Z,14912
2018-11-03T11:51:56.125Z,13340
2018-11-03T11:52:57.216Z,12688
2018-11-03T11:53:57.750Z,12836
2018-11-03T11:55:00.525Z,12072
2018-11-03T11:55:59.869Z,11324
2018-11-03T11:57:00.774Z,12472
2018-11-03T11:58:00.066Z,12236
2018-11-03T11:59:01.496Z,11924
2018-11-03T12:00:02.317Z,11324
2018-11-03T12:01:03.685Z,11800
2018-11-03T12:02:04.915Z,11996
2018-11-03T12:03:05.144Z,12392
2018-11-03T12:04:06.480Z,10020
2018-11-03T12:05:07.643Z,8528
2018-11-03T12:06:08.490Z,6716
2018-11-03T12:07:08.939Z,8244
2018-11-03T12:08:10.207Z,6832
2018-11-03T12:09:11.566Z,5324
2018-11-03T12:10:11.638Z,4596
2018-11-03T12:11:12.968Z,3984
2018-11-03T12:12:14.077Z,3464
2018-11-03T12:13:14.622Z,3224
2018-11-03T12:14:15.589Z,3188
2018-11-03T12:15:16.389Z,3284
2018-11-03T12:16:18.938Z,3408
2018-11-03T12:17:18.457Z,3452
2018-11-03T12:18:18.785Z,3392
2018-11-03T12:19:19.902Z,3364
2018-11-03T12:20:20.458Z,3400
2018-11-03T12:21:21.123Z,3164
2018-11-03T12:22:21.929Z,2884
2018-11-03T12:23:22.730Z,2652
2018-11-03T12:24:24.258Z,2700
2018-11-03T12:25:26.513Z,2560
2018-11-03T12:26:26.753Z,2572
2018-11-03T12:27:27.275Z,2556
2018-11-03T12:28:28.455Z,2472
2018-11-03T12:29:28.983Z,2372
2018-11-03T12:30:30.095Z,2268
2018-11-03T12:31:30.488Z,2072
2018-11-03T12:32:31.721Z,1876
2018-11-03T12:33:32.811Z,1816
2018-11-03T12:34:33.923Z,1832
2018-11-03T12:35:34.601Z,1804
2018-11-03T12:36:34.854Z,1824
2018-11-03T12:37:36.223Z,1872
2018-11-03T12:38:36.583Z,1852
2018-11-03T12:39:37.975Z,1868
2018-11-03T12:40:39.447Z,1840
2018-11-03T12:41:40.417Z,1828
2018-11-03T12:42:42.498Z,1828
2018-11-03T12:43:41.745Z,1864
2018-11-03T12:44:42.725Z,1884
2018-11-03T12:45:43.582Z,2052
2018-11-03T12:46:44.374Z,2016
2018-11-03T12:47:46.049Z,2004
2018-11-03T12:48:46.719Z,2128
2018-11-03T12:49:47.111Z,2276
2018-11-03T12:50:48.216Z,2428
2018-11-03T12:51:49.326Z,2592
2018-11-03T12:52:49.436Z,2700
2018-11-03T12:53:50.249Z,2684
2018-11-03T12:54:52.765Z,2736
2018-11-03T12:55:52.291Z,2816
2018-11-03T12:56:53.374Z,2756
2018-11-03T12:57:54.500Z,2468
2018-11-03T12:58:54.504Z,2232
2018-11-03T12:59:55.089Z,2128
2018-11-03T13:00:56.043Z,2072
2018-11-03T13:01:56.563Z,2016
2018-11-03T13:02:57.649Z,1892
2018-11-03T13:03:57.170Z,1596
2018-11-03T13:04:59.203Z,1628
2018-11-03T13:05:59.758Z,1380
2018-11-03T13:07:00.330Z,1316
2018-11-03T13:08:02.004Z,1248
2018-11-03T13:09:02.907Z,1140
2018-11-03T13:10:03.906Z,1044
2018-11-03T13:11:03.899Z,968
2018-11-03T13:12:05.907Z,892
2018-11-03T13:13:06.112Z,828
2018-11-03T13:14:08.335Z,800
2018-11-03T13:15:08.410Z,800
2018-11-03T13:16:09.217Z,820
2018-11-03T13:17:10.292Z,856
2018-11-03T13:18:10.652Z,896
2018-11-03T13:19:11.500Z,916
2018-11-03T13:20:12.298Z,928
2018-11-03T13:21:13.377Z,948
2018-11-03T13:22:13.895Z,976
2018-11-03T13:23:14.970Z,1012
2018-11-03T13:24:15.487Z,1064
2018-11-03T13:25:17.146Z,1136
2018-11-03T13:26:18.216Z,1260
2018-11-03T13:27:19.022Z,1420
2018-11-03T13:28:19.550Z,1596
2018-11-03T13:29:20.392Z,1704
2018-11-03T13:30:20.189Z,1748
2018-11-03T13:31:20.987Z,1828
2018-11-03T13:32:21.791Z,1972
2018-11-03T13:33:21.869Z,2060
2018-11-03T13:34:22.671Z,1980
2018-11-03T13:35:24.022Z,1968
2018-11-03T13:36:23.823Z,1992
2018-11-03T13:37:25.175Z,2028
2018-11-03T13:38:25.417Z,2072
2018-11-03T13:39:27.022Z,2104
2018-11-03T13:40:26.823Z,2072
2018-11-03T13:41:28.175Z,1968
2018-11-03T13:42:28.815Z,1824
2018-11-03T13:43:29.895Z,1716
2018-11-03T13:44:29.691Z,1660
2018-11-03T13:45:31.049Z,1612
2018-11-03T13:46:31.849Z,1552
2018-11-03T13:47:33.196Z,1476
2018-11-03T13:48:32.789Z,1408
2018-11-03T13:49:34.644Z,1368
2018-11-03T13:50:34.444Z,1360
2018-11-03T13:51:36.242Z,1396
2018-11-03T13:52:36.327Z,1444
2018-11-03T13:53:37.682Z,1464
2018-11-03T13:54:38.481Z,1448
2018-11-03T13:55:39.561Z,1420
2018-11-03T13:56:41.084Z,1392
2018-11-03T13:57:42.234Z,1372
2018-11-03T13:58:43.883Z,1368
2018-11-03T13:59:45.285Z,1356
2018-11-03T14:00:45.363Z,1356
2018-11-03T14:01:46.161Z,1340
2018-11-03T14:02:47.801Z,1312
2018-11-03T14:03:47.994Z,1252
2018-11-03T14:04:48.066Z,1180
2018-11-03T14:05:48.584Z,1120
2018-11-03T14:06:50.103Z,1068
2018-11-03T14:07:50.347Z,1032
2018-11-03T14:08:51.426Z,1012
2018-11-03T14:09:51.821Z,988
2018-11-03T14:10:52.065Z,952